AXP weather

Spring Point Airport
Spring Point, Acklins and Crooked Islands, Bahamas

Public forecast

Using degrees Celsius for public forecast. Weather courtesy of forecast.io.

Closest aviation weather report (METAR) to Spring Point Airport

Report is more than 6 hours old.

Closest report is Providenciales Airport, 103.0 nm (190.7 km) ESE. Retrieved 2020/04/01 23:00 UTC (7 hours ago):

MBPV 012300Z 28005KT 9999 FEW015 26/22 Q1009

Closest aviation forecast (TAF) to Spring Point Airport

Closest forecast is Providenciales Airport, 103.0 nm (190.7 km) ESE. Retrieved 2020-04-02 00:30 UTC (5 hours ago):

TAF MBPV 012145Z 0200/0224 VRB02KT 9999 FEW020 BECMG 0210/0212 24010KT 9999 SCT020 BKN080 PROB30 TEMPO 0212/0214 8000 SHRA BKN018 BECMG 0216/0218 35012KT SCT025